createdAt,value
2019-01-09T00:01:23.099Z,97.91
2019-01-09T00:03:54.474Z,97.90
2019-01-09T00:06:23.080Z,98.00
2019-01-09T00:08:52.758Z,97.92
2019-01-09T00:11:21.681Z,98.08
2019-01-09T00:13:53.169Z,98.20
2019-01-09T00:16:22.074Z,98.29
2019-01-09T00:18:50.968Z,98.41
2019-01-09T00:21:22.413Z,98.37
2019-01-09T00:23:55.410Z,98.14
2019-01-09T00:26:24.002Z,97.94
2019-01-09T00:28:52.556Z,97.66
2019-01-09T00:31:21.735Z,97.78
2019-01-09T00:33:51.801Z,97.87
2019-01-09T00:36:20.509Z,97.90
2019-01-09T00:38:50.854Z,97.83
2019-01-09T00:41:22.597Z,97.92
2019-01-09T00:43:54.697Z,97.77
2019-01-09T00:46:26.259Z,97.69
2019-01-09T00:48:57.658Z,97.67
2019-01-09T00:51:29.177Z,97.57
2019-01-09T00:53:57.785Z,97.61
2019-01-09T00:56:26.438Z,97.32
2019-01-09T00:58:57.840Z,97.24
2019-01-09T01:01:29.221Z,97.23
2019-01-09T01:04:09.107Z,97.21
2019-01-09T01:07:07.238Z,97.14
2019-01-09T01:09:44.458Z,97.30
2019-01-09T01:12:37.108Z,97.15
2019-01-09T01:15:37.905Z,97.09
2019-01-09T01:18:42.054Z,97.15
2019-01-09T01:21:51.001Z,97.08
2019-01-09T01:24:49.018Z,97.15
2019-01-09T01:27:41.122Z,97.23
2019-01-09T01:30:24.562Z,97.20
2019-01-09T01:33:01.837Z,96.95
2019-01-09T01:35:59.074Z,96.89
2019-01-09T01:39:01.375Z,96.87
2019-01-09T01:41:38.793Z,96.79
2019-01-09T01:44:19.399Z,96.73
2019-01-09T01:47:16.665Z,97.05
2019-01-09T01:49:54.543Z,97.26
2019-01-09T01:52:50.524Z,97.27
2019-01-09T01:55:38.410Z,97.40
2019-01-09T01:58:29.430Z,97.52
2019-01-09T02:01:20.507Z,97.70
2019-01-09T02:04:38.597Z,97.82
2019-01-09T02:07:18.346Z,98.03
2019-01-09T02:09:49.916Z,97.88
2019-01-09T02:12:27.614Z,97.84
2019-01-09T02:15:20.657Z,97.88
2019-01-09T02:17:57.878Z,97.92
2019-01-09T02:20:55.484Z,97.84
2019-01-09T02:23:42.445Z,97.53
2019-01-09T02:27:02.230Z,97.34
2019-01-09T02:29:50.725Z,97.46
2019-01-09T02:32:52.095Z,97.44
2019-01-09T02:35:20.643Z,97.37
2019-01-09T02:37:51.906Z,97.27
2019-01-09T02:40:23.621Z,97.47
2019-01-09T02:42:52.166Z,97.38
2019-01-09T02:45:23.774Z,97.20
2019-01-09T02:47:55.006Z,97.08
2019-01-09T02:50:23.561Z,97.01
2019-01-09T02:52:52.100Z,96.98
2019-01-09T02:55:23.451Z,97.09
2019-01-09T02:57:56.871Z,97.22
2019-01-09T03:00:28.208Z,97.12
2019-01-09T03:02:59.529Z,97.03
2019-01-09T03:05:30.845Z,96.92
2019-01-09T03:08:02.072Z,96.71
2019-01-09T03:10:33.444Z,96.56
2019-01-09T03:13:02.069Z,96.64
2019-01-09T03:15:33.615Z,96.64
2019-01-09T03:18:02.178Z,96.91
2019-01-09T03:20:33.624Z,97.13
2019-01-09T03:23:05.302Z,97.11
2019-01-09T03:25:36.737Z,96.94
2019-01-09T03:28:05.358Z,96.83
2019-01-09T03:30:36.882Z,97.09
2019-01-09T03:33:08.193Z,97.05
2019-01-09T03:35:39.756Z,97.24
2019-01-09T03:38:08.474Z,97.12
2019-01-09T03:40:37.050Z,96.79
2019-01-09T03:43:08.440Z,97.00
2019-01-09T03:45:39.918Z,97.15
2019-01-09T03:48:08.593Z,97.21
2019-01-09T03:50:40.117Z,97.24
2019-01-09T03:53:11.658Z,97.26
2019-01-09T03:55:43.062Z,96.89
2019-01-09T03:58:11.634Z,96.64
2019-01-09T04:00:42.873Z,96.51
2019-01-09T04:03:14.142Z,96.50
2019-01-09T04:05:45.674Z,96.37
2019-01-09T04:08:17.068Z,96.30
2019-01-09T04:10:45.641Z,96.09
2019-01-09T04:13:17.094Z,96.13
2019-01-09T04:15:45.638Z,96.13
2019-01-09T04:18:14.288Z,96.16
2019-01-09T04:20:45.666Z,96.05
2019-01-09T04:23:17.006Z,95.99
2019-01-09T04:25:45.556Z,96.09
2019-01-09T04:28:14.173Z,95.82
2019-01-09T04:30:45.814Z,95.83
2019-01-09T04:33:17.093Z,95.78
2019-01-09T04:35:48.828Z,95.65
2019-01-09T04:38:21.862Z,96.06
2019-01-09T04:40:52.011Z,96.11
2019-01-09T04:43:23.515Z,95.56
2019-01-09T04:45:52.209Z,95.15
2019-01-09T04:48:23.724Z,95.01
2019-01-09T04:50:52.319Z,94.82
2019-01-09T04:53:20.953Z,94.82
2019-01-09T04:55:49.523Z,94.78
2019-01-09T04:58:19.230Z,94.70
2019-01-09T05:00:47.714Z,94.63
2019-01-09T05:03:16.279Z,94.51
2019-01-09T05:05:47.545Z,94.30
2019-01-09T05:08:19.854Z,94.00
2019-01-09T05:10:48.500Z,93.87
2019-01-09T05:13:19.816Z,93.65
2019-01-09T05:15:51.410Z,93.83
2019-01-09T05:18:23.510Z,93.99
2019-01-09T05:20:55.194Z,93.99
2019-01-09T05:23:26.673Z,93.79
2019-01-09T05:25:55.685Z,93.70
2019-01-09T05:28:27.643Z,93.78
2019-01-09T05:31:07.198Z,93.64
2019-01-09T05:33:32.747Z,93.89
2019-01-09T05:36:04.291Z,93.84
2019-01-09T05:38:32.909Z,94.16
2019-01-09T05:41:04.292Z,94.23
2019-01-09T05:43:35.878Z,94.05
2019-01-09T05:46:07.472Z,94.07
2019-01-09T05:48:38.726Z,94.08
2019-01-09T05:51:10.235Z,94.03
2019-01-09T05:53:41.521Z,94.41
2019-01-09T05:56:13.019Z,94.79
2019-01-09T05:58:41.563Z,94.77
2019-01-09T06:01:10.161Z,94.90
2019-01-09T06:03:42.003Z,94.81
2019-01-09T06:06:13.476Z,94.58
2019-01-09T06:08:45.016Z,94.79
2019-01-09T06:11:13.710Z,95.04
2019-01-09T06:13:42.350Z,95.37
2019-01-09T06:16:11.765Z,95.05
2019-01-09T06:18:40.839Z,95.03
2019-01-09T06:21:12.395Z,95.07
2019-01-09T06:23:41.719Z,95.26
2019-01-09T06:26:24.317Z,95.37
2019-01-09T06:28:56.286Z,95.74
2019-01-09T06:31:24.859Z,95.87
2019-01-09T06:33:53.602Z,96.07
2019-01-09T06:36:22.626Z,96.47
2019-01-09T06:38:54.425Z,96.52
2019-01-09T06:41:23.034Z,96.58
2019-01-09T06:43:51.647Z,96.79
2019-01-09T06:46:21.915Z,97.15
2019-01-09T06:48:53.610Z,97.59
2019-01-09T06:51:22.232Z,97.83
2019-01-09T06:53:51.276Z,97.85
2019-01-09T06:56:22.793Z,97.95
2019-01-09T06:58:51.458Z,97.97
2019-01-09T07:01:20.062Z,97.91
2019-01-09T07:03:50.936Z,97.85
2019-01-09T07:06:19.546Z,98.08
2019-01-09T07:08:49.349Z,98.24
2019-01-09T07:11:17.916Z,98.24
2019-01-09T07:13:49.490Z,98.34
2019-01-09T07:16:18.350Z,98.46
2019-01-09T07:18:46.895Z,98.55
2019-01-09T07:21:20.951Z,98.59
2019-01-09T07:23:49.514Z,98.66
2019-01-09T07:26:19.315Z,98.75
2019-01-09T07:28:47.909Z,98.71
2019-01-09T07:31:21.274Z,98.59
2019-01-09T07:33:52.831Z,98.61
2019-01-09T07:36:24.195Z,98.79
2019-01-09T07:38:55.728Z,98.86
2019-01-09T07:41:27.280Z,98.94
2019-01-09T07:43:58.610Z,98.93
2019-01-09T07:46:29.857Z,98.93
2019-01-09T07:49:01.437Z,98.95
2019-01-09T07:51:33.222Z,98.95
2019-01-09T07:54:04.638Z,98.93
2019-01-09T07:56:33.340Z,98.96
2019-01-09T07:59:04.662Z,98.83
2019-01-09T08:01:33.215Z,98.67
2019-01-09T08:04:01.761Z,98.87
2019-01-09T08:06:33.037Z,98.69
2019-01-09T08:09:01.580Z,98.60
2019-01-09T08:11:33.013Z,98.37
2019-01-09T08:14:01.568Z,98.78
2019-01-09T08:16:30.117Z,98.35
2019-01-09T08:18:58.663Z,98.09
2019-01-09T08:21:27.211Z,97.84
2019-01-09T08:23:55.743Z,97.96
2019-01-09T08:26:27.240Z,97.82
2019-01-09T08:28:55.780Z,97.16
2019-01-09T08:31:24.336Z,97.12
2019-01-09T08:33:56.026Z,97.43
2019-01-09T08:36:24.575Z,97.61
2019-01-09T08:38:53.130Z,96.98
2019-01-09T08:41:24.653Z,97.03
2019-01-09T08:43:53.206Z,96.86
2019-01-09T08:46:24.771Z,96.73
2019-01-09T08:48:53.349Z,96.85
2019-01-09T08:51:21.962Z,97.09
2019-01-09T08:53:53.251Z,97.06
2019-01-09T08:56:21.791Z,97.26
2019-01-09T08:58:51.925Z,97.33
2019-01-09T09:01:20.729Z,97.56
2019-01-09T09:03:51.016Z,97.69
2019-01-09T09:06:20.166Z,97.79
2019-01-09T09:08:52.878Z,97.76
2019-01-09T09:11:21.528Z,97.67
2019-01-09T09:13:50.147Z,97.66
2019-01-09T09:16:21.155Z,97.93
2019-01-09T09:18:52.730Z,98.11
2019-01-09T09:21:24.419Z,98.09
2019-01-09T09:23:52.963Z,98.12
2019-01-09T09:26:21.507Z,98.36
2019-01-09T09:28:50.153Z,98.34
2019-01-09T09:31:21.534Z,98.13
2019-01-09T09:33:50.260Z,97.75
2019-01-09T09:36:21.649Z,97.67
2019-01-09T09:38:51.210Z,97.64
2019-01-09T09:41:20.040Z,97.42
2019-01-09T09:43:48.805Z,97.23
2019-01-09T09:46:17.789Z,96.97
2019-01-09T09:48:49.481Z,96.85
2019-01-09T09:51:20.278Z,97.07
2019-01-09T09:53:51.040Z,97.08
2019-01-09T09:56:19.631Z,96.96
2019-01-09T09:58:49.298Z,96.99
2019-01-09T10:01:17.887Z,96.85
2019-01-09T10:03:46.434Z,96.83
2019-01-09T10:06:18.024Z,96.87
2019-01-09T10:08:50.581Z,96.82
2019-01-09T10:11:22.046Z,97.28
2019-01-09T10:13:53.859Z,97.33
2019-01-09T10:16:22.448Z,97.27
2019-01-09T10:18:51.016Z,97.17
2019-01-09T10:21:19.606Z,97.30
2019-01-09T10:23:49.361Z,97.38
2019-01-09T10:26:21.196Z,97.34
2019-01-09T10:28:59.505Z,97.06
2019-01-09T10:31:30.809Z,96.72
2019-01-09T10:33:59.434Z,96.27
2019-01-09T10:36:31.134Z,96.41
2019-01-09T10:39:02.436Z,96.21
2019-01-09T10:41:33.840Z,96.19
2019-01-09T10:44:05.550Z,96.43
2019-01-09T10:46:37.200Z,96.52
2019-01-09T10:49:05.830Z,96.39
2019-01-09T10:51:37.508Z,96.26
2019-01-09T10:54:06.475Z,96.48
2019-01-09T10:56:38.144Z,96.52
2019-01-09T10:59:06.867Z,96.67
2019-01-09T11:01:38.550Z,96.66
2019-01-09T11:04:10.148Z,96.12
2019-01-09T11:06:41.398Z,96.35
2019-01-09T11:09:09.956Z,96.39
2019-01-09T11:11:38.504Z,96.11
2019-01-09T11:14:09.421Z,96.08
2019-01-09T11:16:38.082Z,95.77
2019-01-09T11:19:06.626Z,95.91
2019-01-09T11:21:35.572Z,95.97
2019-01-09T11:24:04.186Z,95.99
2019-01-09T11:26:32.788Z,95.90
2019-01-09T11:29:01.414Z,95.89
2019-01-09T11:31:33.213Z,96.10
2019-01-09T11:34:05.027Z,95.75
2019-01-09T11:36:33.572Z,95.95
2019-01-09T11:39:02.315Z,96.16
2019-01-09T11:41:30.873Z,95.78
2019-01-09T11:44:02.527Z,95.37
2019-01-09T11:46:31.072Z,95.25
2019-01-09T11:48:59.624Z,95.34
2019-01-09T11:51:28.204Z,94.86
2019-01-09T11:53:59.605Z,94.24
2019-01-09T11:56:31.110Z,94.28
2019-01-09T11:58:59.737Z,94.38
2019-01-09T12:01:28.719Z,94.61
2019-01-09T12:03:57.313Z,94.31
2019-01-09T12:06:25.856Z,94.61
2019-01-09T12:09:04.538Z,94.38
2019-01-09T12:11:27.585Z,94.18
2019-01-09T12:13:56.193Z,94.13
2019-01-09T12:16:27.454Z,94.48
2019-01-09T12:18:56.109Z,94.53
2019-01-09T12:21:24.686Z,94.19
2019-01-09T12:23:53.243Z,94.04
2019-01-09T12:26:24.550Z,93.92
2019-01-09T12:28:53.607Z,94.04
2019-01-09T12:31:22.613Z,94.29
2019-01-09T12:33:54.177Z,94.17
2019-01-09T12:36:22.752Z,93.81
2019-01-09T12:38:54.773Z,93.75
2019-01-09T12:41:23.594Z,93.09
2019-01-09T12:43:52.214Z,93.24
2019-01-09T12:46:21.358Z,93.49
2019-01-09T12:48:53.242Z,93.41
2019-01-09T12:51:21.856Z,93.71
2019-01-09T12:53:52.414Z,93.60
2019-01-09T12:56:22.569Z,93.72
2019-01-09T12:58:52.039Z,94.04
2019-01-09T13:01:23.653Z,94.05
2019-01-09T13:03:52.659Z,93.63
2019-01-09T13:06:24.622Z,93.05
2019-01-09T13:08:53.187Z,93.12
2019-01-09T13:11:22.077Z,93.10
2019-01-09T13:13:53.673Z,93.00
2019-01-09T13:16:26.395Z,93.03
2019-01-09T13:18:55.117Z,92.97
2019-01-09T13:21:26.994Z,92.86
2019-01-09T13:23:55.536Z,92.73
2019-01-09T13:26:24.134Z,92.92
2019-01-09T13:28:55.536Z,92.63
2019-01-09T13:31:24.082Z,92.71
2019-01-09T13:33:52.744Z,92.88
2019-01-09T13:36:23.994Z,93.08
2019-01-09T13:38:55.548Z,92.99
2019-01-09T13:41:24.141Z,93.20
2019-01-09T13:43:52.760Z,93.28
2019-01-09T13:46:24.564Z,93.22
2019-01-09T13:48:53.105Z,93.34
2019-01-09T13:51:21.678Z,93.42
2019-01-09T13:53:50.299Z,93.50
2019-01-09T13:56:21.978Z,94.17
2019-01-09T13:58:53.249Z,94.14
2019-01-09T14:01:24.965Z,93.81
2019-01-09T14:03:53.681Z,93.77
2019-01-09T14:06:25.057Z,93.51
2019-01-09T14:08:54.098Z,93.61
2019-01-09T14:11:22.724Z,94.00
2019-01-09T14:13:54.723Z,94.45
2019-01-09T14:16:23.275Z,94.31
2019-01-09T14:18:55.356Z,93.93
2019-01-09T14:21:27.204Z,93.80
2019-01-09T14:23:58.580Z,93.70
2019-01-09T14:26:30.582Z,93.60
2019-01-09T14:28:59.614Z,93.51
2019-01-09T14:31:28.233Z,93.75
2019-01-09T14:33:59.837Z,93.83
2019-01-09T14:36:28.609Z,94.26
2019-01-09T14:39:00.325Z,94.58
2019-01-09T14:41:31.788Z,94.51
2019-01-09T14:44:03.478Z,94.57
2019-01-09T14:46:32.016Z,94.92
2019-01-09T14:49:00.613Z,94.80
2019-01-09T14:51:29.230Z,94.45
2019-01-09T14:53:57.846Z,94.81
2019-01-09T14:56:26.458Z,94.89
2019-01-09T14:58:55.493Z,94.98
2019-01-09T15:01:24.087Z,95.18
2019-01-09T15:03:52.904Z,95.29
2019-01-09T15:06:21.556Z,95.17
2019-01-09T15:08:50.133Z,95.15
2019-01-09T15:11:21.010Z,95.16
2019-01-09T15:13:49.645Z,95.06
2019-01-09T15:16:18.359Z,95.13
2019-01-09T15:18:50.059Z,95.00
2019-01-09T15:21:19.028Z,95.22
2019-01-09T15:23:50.362Z,95.42
2019-01-09T15:26:21.929Z,95.50
2019-01-09T15:28:53.818Z,95.44
2019-01-09T15:31:25.197Z,95.27
2019-01-09T15:33:56.573Z,95.23
2019-01-09T15:36:25.177Z,95.22
2019-01-09T15:38:53.812Z,95.45
2019-01-09T15:41:22.533Z,95.22
2019-01-09T15:43:52.688Z,95.51
2019-01-09T15:46:24.216Z,95.74
2019-01-09T15:48:52.895Z,95.85
2019-01-09T15:51:21.519Z,95.70
2019-01-09T15:53:50.129Z,95.49
2019-01-09T15:56:21.098Z,95.37
2019-01-09T15:58:49.713Z,95.36
2019-01-09T16:01:18.413Z,95.55
2019-01-09T16:03:47.026Z,95.44
2019-01-09T16:06:15.636Z,95.21
2019-01-09T16:08:44.256Z,95.20
2019-01-09T16:11:12.967Z,94.97
2019-01-09T16:13:41.582Z,95.17
2019-01-09T16:16:10.191Z,95.36
2019-01-09T16:18:41.156Z,95.42
2019-01-09T16:21:10.175Z,95.13
2019-01-09T16:23:38.859Z,94.86
2019-01-09T16:26:07.774Z,95.20
2019-01-09T16:28:36.328Z,95.69
2019-01-09T16:31:33.961Z,95.95
2019-01-09T16:34:02.582Z,95.76
2019-01-09T16:36:34.418Z,95.50
2019-01-09T16:39:03.111Z,95.63
2019-01-09T16:41:31.661Z,95.32
2019-01-09T16:44:00.217Z,95.22
2019-01-09T16:46:31.801Z,95.22
2019-01-09T16:49:03.136Z,95.18
2019-01-09T16:51:35.034Z,95.44
2019-01-09T16:54:03.748Z,95.52
2019-01-09T16:56:32.702Z,95.47
2019-01-09T16:59:01.535Z,95.45
2019-01-09T17:01:30.195Z,95.50
2019-01-09T17:03:59.236Z,95.52
2019-01-09T17:06:27.844Z,95.64
2019-01-09T17:08:56.500Z,95.47
2019-01-09T17:11:25.210Z,95.59
2019-01-09T17:13:53.769Z,95.66
2019-01-09T17:16:22.319Z,95.69
2019-01-09T17:18:50.967Z,95.83
2019-01-09T17:21:19.986Z,95.60
2019-01-09T17:23:48.813Z,95.90
2019-01-09T17:26:17.425Z,96.00
2019-01-09T17:28:46.146Z,95.97
2019-01-09T17:31:14.759Z,95.84
2019-01-09T17:33:43.382Z,95.83
2019-01-09T17:36:12.400Z,95.83
2019-01-09T17:38:41.016Z,95.72
2019-01-09T17:41:09.625Z,95.50
2019-01-09T17:43:38.244Z,95.63
2019-01-09T17:46:06.959Z,95.69
2019-01-09T17:48:35.580Z,95.58
2019-01-09T17:51:04.715Z,95.87
2019-01-09T17:53:33.850Z,95.87
2019-01-09T17:56:02.870Z,96.15
2019-01-09T17:58:31.789Z,96.20
2019-01-09T18:01:03.196Z,96.38
2019-01-09T18:03:32.205Z,96.48
2019-01-09T18:06:00.811Z,96.53
2019-01-09T18:08:29.438Z,96.61
2019-01-09T18:10:57.987Z,96.69
2019-01-09T18:13:26.552Z,96.98
2019-01-09T18:15:55.223Z,96.98
2019-01-09T18:18:23.944Z,96.76
2019-01-09T18:20:52.760Z,96.65
2019-01-09T18:23:24.550Z,96.67
2019-01-09T18:25:53.162Z,96.57
2019-01-09T18:28:21.779Z,96.46
2019-01-09T18:30:53.737Z,96.25
2019-01-09T18:33:32.734Z,96.02
2019-01-09T18:36:21.222Z,96.05
2019-01-09T18:39:09.504Z,96.12
2019-01-09T18:41:47.037Z,96.32
2019-01-09T18:44:24.955Z,96.32
2019-01-09T18:47:23.505Z,96.27
2019-01-09T18:50:07.269Z,96.26
2019-01-09T18:53:02.615Z,96.40
2019-01-09T18:55:31.325Z,96.60
2019-01-09T18:58:00.345Z,96.70
2019-01-09T19:00:29.444Z,96.54
2019-01-09T19:02:58.485Z,96.58
2019-01-09T19:05:27.097Z,96.52
2019-01-09T19:07:55.717Z,96.53
2019-01-09T19:10:24.611Z,96.45
2019-01-09T19:12:56.825Z,96.26
2019-01-09T19:15:25.485Z,96.23
2019-01-09T19:17:54.193Z,96.20
2019-01-09T19:20:23.522Z,96.27
2019-01-09T19:22:52.757Z,96.26
2019-01-09T19:25:24.443Z,96.19
2019-01-09T19:27:53.156Z,95.94
2019-01-09T19:33:24.803Z,95.83
2019-01-09T19:35:56.496Z,95.78
2019-01-09T19:38:25.108Z,95.82
2019-01-09T19:40:53.822Z,95.69
2019-01-09T19:43:22.439Z,95.49
2019-01-09T19:45:53.007Z,95.25
2019-01-09T19:48:21.735Z,95.23
2019-01-09T19:50:52.117Z,95.08
2019-01-09T19:53:20.940Z,95.16
2019-01-09T19:55:49.562Z,94.94
2019-01-09T19:58:18.877Z,94.66
2019-01-09T20:00:49.691Z,94.62
2019-01-09T20:03:18.414Z,94.38
2019-01-09T20:05:47.236Z,94.52
2019-01-09T20:08:15.979Z,94.29
2019-01-09T20:10:44.881Z,94.08
2019-01-09T20:13:13.524Z,94.09
2019-01-09T20:15:42.556Z,94.07
2019-01-09T20:18:11.667Z,93.88
2019-01-09T20:20:40.685Z,94.02
2019-01-09T20:23:09.442Z,94.17
2019-01-09T20:25:38.159Z,94.19
2019-01-09T20:28:06.859Z,93.75
2019-01-09T20:30:35.566Z,94.04
2019-01-09T20:33:04.496Z,94.02
2019-01-09T20:35:33.222Z,94.07
2019-01-09T20:38:01.952Z,93.78
2019-01-09T20:40:30.559Z,93.77
2019-01-09T20:42:59.587Z,93.87
2019-01-09T20:45:28.459Z,93.86
2019-01-09T20:47:58.653Z,93.73
2019-01-09T20:50:32.053Z,93.90
2019-01-09T20:53:02.473Z,93.97
2019-01-09T20:55:34.649Z,93.92
2019-01-09T20:58:04.691Z,94.14
2019-01-09T21:00:34.400Z,94.69
2019-01-09T21:03:04.702Z,94.45
2019-01-09T21:05:36.920Z,94.58
2019-01-09T21:08:06.668Z,94.93
2019-01-09T21:10:35.320Z,95.06
2019-01-09T21:13:04.671Z,95.01
2019-01-09T21:15:33.335Z,95.01
2019-01-09T21:18:02.191Z,94.75
2019-01-09T21:20:30.867Z,94.77
2019-01-09T21:23:02.458Z,95.10
2019-01-09T21:25:31.593Z,95.25
2019-01-09T21:28:00.442Z,94.62
2019-01-09T21:30:29.051Z,94.62
2019-01-09T21:32:57.863Z,94.69
2019-01-09T21:35:26.525Z,95.20
2019-01-09T21:37:58.267Z,95.20
2019-01-09T21:40:29.187Z,94.99
2019-01-09T21:42:57.972Z,94.92
2019-01-09T21:45:26.680Z,94.83
2019-01-09T21:47:55.392Z,94.66
2019-01-09T21:50:25.443Z,94.73
2019-01-09T21:52:54.354Z,95.07
2019-01-09T21:55:23.691Z,94.98
2019-01-09T21:57:52.406Z,94.98
2019-01-09T22:00:26.039Z,94.79
2019-01-09T22:02:54.791Z,94.54
2019-01-09T22:05:25.224Z,94.38
2019-01-09T22:07:54.634Z,94.46
2019-01-09T22:10:32.160Z,94.70
2019-01-09T22:13:00.991Z,94.63
2019-01-09T22:15:29.622Z,94.55
2019-01-09T22:17:58.340Z,95.08
2019-01-09T22:20:26.959Z,95.16
2019-01-09T22:22:55.647Z,94.97
2019-01-09T22:25:25.020Z,95.00
2019-01-09T22:27:54.164Z,94.84
2019-01-09T22:30:25.103Z,94.94
2019-01-09T22:32:53.867Z,94.79
2019-01-09T22:35:23.197Z,94.93
2019-01-09T22:37:51.931Z,94.88
2019-01-09T22:40:29.065Z,94.89
2019-01-09T22:42:57.675Z,94.63
2019-01-09T22:45:30.169Z,94.49
2019-01-09T22:48:01.319Z,94.37
2019-01-09T22:50:30.262Z,94.07
2019-01-09T22:52:58.870Z,94.46
2019-01-09T22:55:27.428Z,94.46
2019-01-09T22:57:56.018Z,94.22
2019-01-09T23:00:58.249Z,94.29
2019-01-09T23:03:26.856Z,94.60
2019-01-09T23:05:55.678Z,95.06
2019-01-09T23:08:24.513Z,95.16
2019-01-09T23:10:55.013Z,95.08
2019-01-09T23:13:23.607Z,94.97
2019-01-09T23:15:52.323Z,95.21
2019-01-09T23:18:21.454Z,95.24
2019-01-09T23:20:50.063Z,95.25
2019-01-09T23:23:21.654Z,95.13
2019-01-09T23:25:51.739Z,94.92
2019-01-09T23:28:22.301Z,94.88
2019-01-09T23:30:50.922Z,94.85
2019-01-09T23:33:20.501Z,94.75
2019-01-09T23:35:49.179Z,94.71
2019-01-09T23:38:17.887Z,94.76
2019-01-09T23:40:46.506Z,94.81
2019-01-09T23:43:15.117Z,94.94
2019-01-09T23:45:43.738Z,94.79
2019-01-09T23:48:12.755Z,94.92
2019-01-09T23:50:41.572Z,95.01
2019-01-09T23:53:10.185Z,95.01
2019-01-09T23:55:38.797Z,95.23
2019-01-09T23:58:07.417Z,95.17
